Time,TemperatureF,DewpointF,PressureIn,WindDirection,WindDirectionDegrees,WindSpeedMPH,WindSpeedGustMPH,Humidity,HourlyPrecipIn,Conditions,Clouds,dailyrainin,SoftwareType,DateUTC
2013-06-18 00:00:00,77.4,70.4,29.84,SSW,198,0.0,5.0,79,0.00,OVC,OVC,0.00,WeatherDisplay:10.31,2013-06-18 04:00:00,
2013-06-18 00:05:00,77.4,70.4,29.84,South,187,2.0,3.0,79,0.00,OVC,OVC,0.00,WeatherDisplay:10.31,2013-06-18 04:05:00,
2013-06-18 00:10:00,77.4,70.4,29.84,South,180,2.0,3.0,79,0.00,OVC,OVC,0.00,WeatherDisplay:10.31,2013-06-18 04:10:00,
2013-06-18 00:15:00,77.2,70.5,29.84,South,180,3.0,6.0,80,0.00,OVC,OVC,0.00,WeatherDisplay:10.31,2013-06-18 04:15:00,
2013-06-18 00:20:00,77.2,70.5,29.84,South,180,2.0,5.0,80,0.00,OVC,OVC,0.00,WeatherDisplay:10.31,2013-06-18 04:20:00,
2013-06-18 00:25:00,77.0,70.7,29.84,South,180,2.0,5.0,81,0.00,OVC,OVC,0.00,WeatherDisplay:10.31,2013-06-18 04:25:00,
2013-06-18 00:30:00,76.8,70.5,29.84,South,180,2.0,5.0,81,0.00,OVC,OVC,0.00,WeatherDisplay:10.31,2013-06-18 04:30:00,
2013-06-18 00:40:00,76.7,70.8,29.83,South,180,2.0,3.0,82,0.00,OVC,OVC,0.00,WeatherDisplay:10.31,2013-06-18 04:40:00,
2013-06-18 00:50:00,76.5,70.9,29.83,South,180,2.0,5.0,83,0.00,OVC,OVC,0.00,WeatherDisplay:10.31,2013-06-18 04:50:00,
2013-06-18 01:00:00,76.3,70.8,29.83,South,180,2.0,2.0,83,0.00,OVC,OVC,0.00,WeatherDisplay:10.31,2013-06-18 05:00:00,
2013-06-18 01:05:00,76.3,70.8,29.83,South,180,1.0,3.0,83,0.00,OVC,OVC,0.00,WeatherDisplay:10.31,2013-06-18 05:05:00,
2013-06-18 01:10:00,76.1,70.6,29.83,South,180,3.0,3.0,83,0.00,OVC,OVC,0.00,WeatherDisplay:10.31,2013-06-18 05:10:00,
2013-06-18 01:20:00,76.0,70.8,29.83,South,180,2.0,3.0,84,0.00,OVC,OVC,0.00,WeatherDisplay:10.31,2013-06-18 05:20:00,
2013-06-18 01:30:00,75.8,70.6,29.82,South,180,1.0,2.0,84,0.00,OVC,OVC,0.00,WeatherDisplay:10.31,2013-06-18 05:30:00,
2013-06-18 01:40:00,75.8,70.6,29.82,South,180,2.0,3.0,84,0.00,OVC,OVC,0.00,WeatherDisplay:10.31,2013-06-18 05:40:00,
2013-06-18 01:50:00,75.6,70.8,29.82,South,180,5.0,7.0,85,0.00,OVC,OVC,0.00,WeatherDisplay:10.31,2013-06-18 05:50:00,
2013-06-18 02:00:00,75.3,70.9,29.82,South,180,3.0,6.0,86,0.00,OVC,OVC,0.00,WeatherDisplay:10.31,2013-06-18 06:00:00,
2013-06-18 02:05:00,75.3,71.2,29.82,South,180,5.0,7.0,87,0.00,OVC,OVC,0.00,WeatherDisplay:10.31,2013-06-18 06:05:00,
2013-06-18 02:10:00,75.1,71.0,29.81,South,180,5.0,7.0,87,0.00,OVC,OVC,0.00,WeatherDisplay:10.31,2013-06-18 06:10:00,
2013-06-18 02:20:00,74.9,70.8,29.81,South,180,3.0,6.0,87,0.00,OVC,OVC,0.00,WeatherDisplay:10.31,2013-06-18 06:20:00,
2013-06-18 02:30:00,74.6,70.5,29.80,SSE,160,2.0,5.0,87,0.00,OVC,OVC,0.00,WeatherDisplay:10.31,2013-06-18 06:30:00,
2013-06-18 02:40:00,74.4,69.9,29.80,SSE,164,6.0,7.0,86,0.00,OVC,OVC,0.00,WeatherDisplay:10.31,2013-06-18 06:40:00,
2013-06-18 02:50:00,74.2,69.7,29.79,South,180,1.0,5.0,86,0.00,OVC,OVC,0.00,WeatherDisplay:10.31,2013-06-18 06:50:00,
2013-06-18 03:00:00,74.0,69.5,29.79,South,180,0.0,3.0,86,0.00,OVC,OVC,0.00,WeatherDisplay:10.31,2013-06-18 07:00:00,
2013-06-18 03:05:00,74.0,69.5,29.79,South,180,1.0,3.0,86,0.00,OVC,OVC,0.00,WeatherDisplay:10.31,2013-06-18 07:05:00,
2013-06-18 03:10:00,74.0,69.5,29.79,South,180,0.0,3.0,86,0.00,OVC,OVC,0.00,WeatherDisplay:10.31,2013-06-18 07:10:00,
2013-06-18 03:20:00,73.9,69.4,29.79,South,180,0.0,2.0,86,0.00,OVC,OVC,0.00,WeatherDisplay:10.31,2013-06-18 07:20:00,
2013-06-18 03:30:00,73.9,69.4,29.79,South,180,1.0,2.0,86,0.00,OVC,OVC,0.00,WeatherDisplay:10.31,2013-06-18 07:30:00,
2013-06-18 03:40:00,73.5,69.1,29.79,South,180,2.0,5.0,86,0.00,OVC,OVC,0.00,WeatherDisplay:10.31,2013-06-18 07:40:00,
2013-06-18 03:50:00,73.3,68.8,29.79,South,180,1.0,3.0,86,0.00,OVC,OVC,0.00,WeatherDisplay:10.31,2013-06-18 07:50:00,
2013-06-18 04:00:00,73.2,68.8,29.79,South,180,0.0,1.0,86,0.00,OVC,OVC,0.00,WeatherDisplay:10.31,2013-06-18 08:00:00,
2013-06-18 04:05:00,73.0,68.6,29.79,South,180,1.0,2.0,86,0.00,OVC,OVC,0.00,WeatherDisplay:10.31,2013-06-18 08:05:00,
2013-06-18 04:10:00,73.0,68.9,29.79,South,180,0.0,2.0,87,0.00,OVC,OVC,0.00,WeatherDisplay:10.31,2013-06-18 08:10:00,
2013-06-18 04:20:00,73.0,68.9,29.79,South,180,0.0,1.0,87,0.00,OVC,OVC,0.00,WeatherDisplay:10.31,2013-06-18 08:20:00,
2013-06-18 04:30:00,72.7,68.6,29.79,South,180,3.0,3.0,87,0.00,OVC,OVC,0.00,WeatherDisplay:10.31,2013-06-18 08:30:00,
2013-06-18 04:40:00,72.3,68.2,29.79,South,180,1.0,3.0,87,0.00,OVC,OVC,0.00,WeatherDisplay:10.31,2013-06-18 08:40:00,
2013-06-18 04:45:00,72.3,68.2,29.79,South,180,1.0,3.0,87,0.00,OVC,OVC,0.00,WeatherDisplay:10.31,2013-06-18 08:45:00,
2013-06-18 04:50:00,72.3,68.2,29.79,South,180,1.0,3.0,87,0.00,OVC,OVC,0.00,WeatherDisplay:10.31,2013-06-18 08:50:00,
2013-06-18 05:00:00,72.1,68.3,29.78,South,180,0.0,2.0,88,0.00,OVC,OVC,0.00,WeatherDisplay:10.31,2013-06-18 09:00:00,
2013-06-18 05:10:00,72.1,68.3,29.78,South,180,1.0,2.0,88,0.00,OVC,OVC,0.00,WeatherDisplay:10.31,2013-06-18 09:10:00,
2013-06-18 05:20:00,72.0,67.9,29.78,South,180,1.0,2.0,87,0.00,OVC,OVC,0.00,WeatherDisplay:10.31,2013-06-18 09:20:00,
2013-06-18 05:30:00,71.8,67.7,29.78,South,180,0.0,1.0,87,0.00,OVC,OVC,0.00,WeatherDisplay:10.31,2013-06-18 09:30:00,
2013-06-18 05:40:00,71.6,67.5,29.79,South,180,1.0,2.0,87,0.00,OVC,OVC,0.00,WeatherDisplay:10.31,2013-06-18 09:40:00,
2013-06-18 05:50:00,71.5,67.4,29.79,South,180,1.0,2.0,87,0.00,OVC,OVC,0.00,WeatherDisplay:10.31,2013-06-18 09:50:00,
2013-06-18 06:00:00,71.3,67.2,29.79,South,180,1.0,2.0,87,0.00,OVC,OVC,0.00,WeatherDisplay:10.31,2013-06-18 10:00:00,
2013-06-18 06:05:00,71.1,67.0,29.79,South,180,0.0,2.0,87,0.00,OVC,OVC,0.00,WeatherDisplay:10.31,2013-06-18 10:05:00,
2013-06-18 06:10:00,71.1,67.0,29.79,South,180,1.0,2.0,87,0.00,OVC,OVC,0.00,WeatherDisplay:10.31,2013-06-18 10:10:00,
2013-06-18 06:20:00,71.1,67.0,29.80,South,180,1.0,3.0,87,0.00,OVC,OVC,0.00,WeatherDisplay:10.31,2013-06-18 10:20:00,
2013-06-18 06:30:00,71.5,67.4,29.80,South,180,1.0,2.0,87,0.00,OVC,OVC,0.00,WeatherDisplay:10.31,2013-06-18 10:30:00,
2013-06-18 06:40:00,71.6,67.5,29.80,South,180,1.0,3.0,87,0.00,OVC,OVC,0.00,WeatherDisplay:10.31,2013-06-18 10:40:00,
2013-06-18 06:50:00,71.8,68.1,29.80,South,180,1.0,3.0,88,0.00,SCT,SCT,0.00,WeatherDisplay:10.31,2013-06-18 10:50:00,
2013-06-18 07:00:00,72.0,68.2,29.80,South,180,1.0,3.0,88,0.00,BKN,BKN,0.00,WeatherDisplay:10.31,2013-06-18 11:00:00,
2013-06-18 07:05:00,72.0,68.2,29.80,South,174,2.0,5.0,88,0.00,BKN,BKN,0.00,WeatherDisplay:10.31,2013-06-18 11:05:00,
2013-06-18 07:10:00,72.0,68.2,29.80,SSE,163,2.0,3.0,88,0.00,OVC,OVC,0.00,WeatherDisplay:10.31,2013-06-18 11:10:00,
2013-06-18 07:20:00,72.0,68.2,29.81,SSE,158,2.0,5.0,88,0.00,OVC,OVC,0.00,WeatherDisplay:10.31,2013-06-18 11:20:00,
2013-06-18 07:30:00,71.9,68.1,29.81,South,175,3.0,5.0,88,0.00,OVC,OVC,0.00,WeatherDisplay:10.31,2013-06-18 11:30:00,
2013-06-18 07:40:00,72.0,68.2,29.81,South,180,3.0,5.0,88,0.00,OVC,OVC,0.00,WeatherDisplay:10.31,2013-06-18 11:40:00,
2013-06-18 07:50:00,72.0,68.2,29.81,South,180,3.0,6.0,88,0.00,OVC,OVC,0.00,WeatherDisplay:10.31,2013-06-18 11:50:00,
2013-06-18 08:00:00,72.0,67.9,29.81,South,182,2.0,6.0,87,0.00,OVC,OVC,0.00,WeatherDisplay:10.31,2013-06-18 12:00:00,
2013-06-18 08:05:00,72.0,67.9,29.81,South,182,5.0,5.0,87,0.00,OVC,OVC,0.00,WeatherDisplay:10.31,2013-06-18 12:05:00,
2013-06-18 08:10:00,72.0,67.9,29.80,South,180,2.0,5.0,87,0.00,OVC,OVC,0.00,WeatherDisplay:10.31,2013-06-18 12:10:00,
2013-06-18 08:20:00,72.0,67.6,29.81,South,180,3.0,3.0,86,0.00,OVC,OVC,0.00,WeatherDisplay:10.31,2013-06-18 12:20:00,
2013-06-18 08:30:00,72.0,67.6,29.81,South,180,3.0,6.0,86,0.00,OVC,OVC,0.00,WeatherDisplay:10.31,2013-06-18 12:30:00,
2013-06-18 08:40:00,72.0,67.2,29.81,South,180,3.0,7.0,85,0.00,OVC,OVC,0.00,WeatherDisplay:10.31,2013-06-18 12:40:00,
2013-06-18 08:45:00,72.1,67.3,29.81,South,180,3.0,6.0,85,0.00,OVC,OVC,0.00,WeatherDisplay:10.31,2013-06-18 12:45:00,
2013-06-18 08:50:00,72.1,67.0,29.81,South,190,3.0,6.0,84,0.00,OVC,OVC,0.00,WeatherDisplay:10.31,2013-06-18 12:50:00,
2013-06-18 09:00:00,72.3,67.2,29.80,South,191,5.0,7.0,84,0.00,OVC,OVC,0.00,WeatherDisplay:10.31,2013-06-18 13:00:00,
2013-06-18 09:05:00,72.4,67.3,29.80,South,190,3.0,5.0,84,0.00,OVC,OVC,0.00,WeatherDisplay:10.31,2013-06-18 13:05:00,
2013-06-18 09:10:00,72.5,67.0,29.81,South,180,3.0,6.0,83,0.00,OVC,OVC,0.00,WeatherDisplay:10.31,2013-06-18 13:10:00,
2013-06-18 09:20:00,72.8,67.3,29.81,SSW,208,3.0,5.0,83,0.00,OVC,OVC,0.00,WeatherDisplay:10.31,2013-06-18 13:20:00,
2013-06-18 09:30:00,73.3,67.1,29.81,SW,219,8.0,10.0,81,0.00,OVC,OVC,0.00,WeatherDisplay:10.31,2013-06-18 13:30:00,
2013-06-18 09:40:00,73.7,67.1,29.81,SW,232,6.0,12.0,80,0.00,OVC,OVC,0.00,WeatherDisplay:10.31,2013-06-18 13:40:00,
2013-06-18 09:50:00,73.7,67.1,29.80,SW,227,7.0,10.0,80,0.00,OVC,OVC,0.00,WeatherDisplay:10.31,2013-06-18 13:50:00,
2013-06-18 10:00:00,73.7,67.1,29.80,SW,227,5.0,10.0,80,0.00,OVC,OVC,0.00,WeatherDisplay:10.31,2013-06-18 14:00:00,
2013-06-18 10:05:00,73.9,67.3,29.80,SW,228,5.0,6.0,80,0.00,OVC,OVC,0.00,WeatherDisplay:10.31,2013-06-18 14:05:00,
2013-06-18 10:10:00,74.0,67.1,29.80,SW,225,5.0,5.0,79,0.00,OVC,OVC,0.00,WeatherDisplay:10.31,2013-06-18 14:10:00,
2013-06-18 10:20:00,74.4,67.1,29.80,SW,214,6.0,8.0,78,0.00,OVC,OVC,0.00,WeatherDisplay:10.31,2013-06-18 14:20:00,
2013-06-18 10:30:00,74.6,66.9,29.80,SSW,213,3.0,7.0,77,0.00,OVC,OVC,0.00,WeatherDisplay:10.31,2013-06-18 14:30:00,
2013-06-18 10:40:00,74.7,67.0,29.80,WSW,253,2.0,3.0,77,0.00,OVC,OVC,0.00,WeatherDisplay:10.31,2013-06-18 14:40:00,
2013-06-18 10:50:00,74.9,66.4,29.80,SW,226,5.0,9.0,75,0.00,OVC,OVC,0.00,WeatherDisplay:10.31,2013-06-18 14:50:00,
2013-06-18 11:00:00,75.1,66.6,29.80,SSW,209,3.0,5.0,75,0.00,OVC,OVC,0.00,WeatherDisplay:10.31,2013-06-18 15:00:00,
2013-06-18 11:05:00,75.3,66.8,29.79,SW,222,1.0,3.0,75,0.00,OVC,OVC,0.00,WeatherDisplay:10.31,2013-06-18 15:05:00,
2013-06-18 11:10:00,75.6,67.1,29.79,West,260,1.0,5.0,75,0.00,OVC,OVC,0.00,WeatherDisplay:10.31,2013-06-18 15:10:00,
2013-06-18 11:20:00,75.8,66.1,29.80,West,277,2.0,5.0,72,0.00,OVC,OVC,0.00,WeatherDisplay:10.31,2013-06-18 15:20:00,
2013-06-18 11:30:00,76.1,66.4,29.80,West,270,1.0,3.0,72,0.00,OVC,OVC,0.00,WeatherDisplay:10.31,2013-06-18 15:30:00,
2013-06-18 11:40:00,76.3,65.8,29.79,West,270,1.0,3.0,70,0.00,OVC,OVC,0.00,WeatherDisplay:10.31,2013-06-18 15:40:00,
2013-06-18 11:50:00,76.8,65.9,29.79,West,270,0.0,1.0,69,0.00,OVC,OVC,0.00,WeatherDisplay:10.31,2013-06-18 15:50:00,
2013-06-18 12:00:00,77.4,66.4,29.79,WNW,288,0.0,3.0,69,0.00,OVC,OVC,0.00,WeatherDisplay:10.31,2013-06-18 16:00:00,
2013-06-18 12:05:00,77.7,66.7,29.79,NW,307,2.0,3.0,69,0.00,OVC,OVC,0.00,WeatherDisplay:10.31,2013-06-18 16:05:00,
2013-06-18 12:10:00,77.9,66.5,29.78,NNW,341,2.0,6.0,68,0.00,OVC,OVC,0.00,WeatherDisplay:10.31,2013-06-18 16:10:00,
2013-06-18 12:20:00,78.3,67.3,29.77,North,360,3.0,6.0,69,0.00,OVC,OVC,0.00,WeatherDisplay:10.31,2013-06-18 16:20:00,
2013-06-18 12:25:00,78.3,66.9,29.77,North,0,5.0,8.0,68,0.00,OVC,OVC,0.00,WeatherDisplay:10.31,2013-06-18 16:25:00,
2013-06-18 12:30:00,78.3,66.9,29.77,North,2,1.0,6.0,68,0.00,OVC,OVC,0.00,WeatherDisplay:10.31,2013-06-18 16:30:00,
2013-06-18 12:40:00,78.1,66.7,29.77,North,360,2.0,5.0,68,0.00,OVC,OVC,0.00,WeatherDisplay:10.31,2013-06-18 16:40:00,
2013-06-18 12:50:00,77.7,66.7,29.77,North,350,3.0,6.0,69,0.00,OVC,OVC,0.00,WeatherDisplay:10.31,2013-06-18 16:50:00,
2013-06-18 13:00:00,77.0,66.9,29.77,North,352,1.0,9.0,71,0.00,OVC,OVC,0.00,WeatherDisplay:10.31,2013-06-18 17:00:00,
2013-06-18 13:05:00,76.5,67.2,29.77,NW,320,2.0,12.0,73,0.00,OVC,OVC,0.00,WeatherDisplay:10.31,2013-06-18 17:05:00,
2013-06-18 13:10:00,76.0,67.5,29.77,WNW,297,3.0,7.0,75,0.00,OVC,OVC,0.00,WeatherDisplay:10.31,2013-06-18 17:10:00,
2013-06-18 13:20:00,75.1,68.1,29.76,NW,317,3.0,6.0,79,0.01,RA,RA,0.02,WeatherDisplay:10.31,2013-06-18 17:20:00,
2013-06-18 13:30:00,74.3,68.4,29.76,NW,320,3.0,6.0,82,0.01,RA,RA,0.04,WeatherDisplay:10.31,2013-06-18 17:30:00,
2013-06-18 13:40:00,73.5,68.4,29.75,NW,316,6.0,10.0,84,0.00,RA,RA,0.05,WeatherDisplay:10.31,2013-06-18 17:40:00,
2013-06-18 13:50:00,73.0,68.2,29.75,NW,317,0.0,9.0,85,0.00,OVC,OVC,0.05,WeatherDisplay:10.31,2013-06-18 17:50:00,
2013-06-18 14:00:00,72.7,68.6,29.75,WNW,297,3.0,6.0,87,0.00,RA,RA,0.06,WeatherDisplay:10.31,2013-06-18 18:00:00,
2013-06-18 14:05:00,72.5,68.4,29.75,NNW,329,3.0,6.0,87,0.01,RA,RA,0.07,WeatherDisplay:10.31,2013-06-18 18:05:00,
2013-06-18 14:10:00,72.3,68.2,29.75,NW,318,2.0,9.0,87,0.01,RA,RA,0.08,WeatherDisplay:10.31,2013-06-18 18:10:00,
2013-06-18 14:20:00,72.3,68.5,29.76,West,274,1.0,2.0,88,0.01,RA,RA,0.10,WeatherDisplay:10.31,2013-06-18 18:20:00,
2013-06-18 14:30:00,72.1,68.3,29.76,WNW,296,1.0,3.0,88,0.01,RA,RA,0.12,WeatherDisplay:10.31,2013-06-18 18:30:00,
2013-06-18 14:40:00,72.0,68.6,29.76,NW,315,0.0,2.0,89,0.01,RA,RA,0.13,WeatherDisplay:10.31,2013-06-18 18:40:00,
2013-06-18 14:50:00,72.1,68.7,29.77,NW,315,0.0,2.0,89,0.00,RA,RA,0.14,WeatherDisplay:10.31,2013-06-18 18:50:00,
2013-06-18 15:00:00,72.1,68.7,29.77,NW,315,0.0,1.0,89,0.00,RA,RA,0.15,WeatherDisplay:10.31,2013-06-18 19:00:00,
2013-06-18 15:05:00,72.3,68.8,29.77,NW,315,0.0,1.0,89,0.00,OVC,OVC,0.15,WeatherDisplay:10.31,2013-06-18 19:05:00,
2013-06-18 15:10:00,72.3,68.9,29.77,NW,315,0.0,1.0,89,0.00,OVC,OVC,0.15,WeatherDisplay:10.31,2013-06-18 19:10:00,
2013-06-18 15:20:00,72.1,68.7,29.77,NW,307,2.0,3.0,89,0.00,OVC,OVC,0.15,WeatherDisplay:10.31,2013-06-18 19:20:00,
2013-06-18 15:30:00,71.7,68.3,29.76,NNW,330,1.0,3.0,89,0.01,RA,RA,0.16,WeatherDisplay:10.31,2013-06-18 19:30:00,
2013-06-18 15:40:00,71.6,68.2,29.76,WNW,300,2.0,5.0,89,0.00,OVC,OVC,0.16,WeatherDisplay:10.31,2013-06-18 19:40:00,
2013-06-18 15:50:00,71.5,68.1,29.76,NNW,337,3.0,6.0,89,0.00,OVC,OVC,0.16,WeatherDisplay:10.31,2013-06-18 19:50:00,
2013-06-18 16:00:00,71.3,67.9,29.75,NNW,329,2.0,6.0,89,0.00,RA,RA,0.17,WeatherDisplay:10.31,2013-06-18 20:00:00,
2013-06-18 16:10:00,71.1,67.7,29.75,NW,322,0.0,5.0,89,0.00,OVC,OVC,0.17,WeatherDisplay:10.31,2013-06-18 20:10:00,
2013-06-18 16:20:00,71.3,68.2,29.75,NW,322,5.0,6.0,90,0.00,OVC,OVC,0.17,WeatherDisplay:10.31,2013-06-18 20:20:00,
2013-06-18 16:30:00,71.5,68.4,29.75,NW,326,3.0,7.0,90,0.01,RA,RA,0.18,WeatherDisplay:10.31,2013-06-18 20:30:00,
2013-06-18 16:40:00,71.6,68.5,29.74,NNW,347,1.0,3.0,90,0.00,OVC,OVC,0.18,WeatherDisplay:10.31,2013-06-18 20:40:00,
2013-06-18 16:50:00,71.8,69.0,29.74,North,360,1.0,3.0,91,0.00,OVC,OVC,0.18,WeatherDisplay:10.31,2013-06-18 20:50:00,
2013-06-18 17:00:00,72.0,68.9,29.74,NNE,17,2.0,3.0,90,0.00,OVC,OVC,0.18,WeatherDisplay:10.31,2013-06-18 21:00:00,
2013-06-18 17:05:00,72.0,68.9,29.74,NE,34,2.0,3.0,90,0.00,OVC,OVC,0.18,WeatherDisplay:10.31,2013-06-18 21:05:00,
2013-06-18 17:10:00,71.6,68.5,29.74,NE,48,6.0,10.0,90,0.00,OVC,OVC,0.18,WeatherDisplay:10.31,2013-06-18 21:10:00,
2013-06-18 17:20:00,71.3,67.9,29.75,NE,51,1.0,3.0,89,0.00,OVC,OVC,0.18,WeatherDisplay:10.31,2013-06-18 21:20:00,
2013-06-18 17:30:00,71.1,67.7,29.75,NE,40,2.0,6.0,89,0.00,OVC,OVC,0.18,WeatherDisplay:10.31,2013-06-18 21:30:00,
2013-06-18 17:40:00,70.9,67.5,29.75,NE,55,2.0,3.0,89,0.00,OVC,OVC,0.18,WeatherDisplay:10.31,2013-06-18 21:40:00,
2013-06-18 17:50:00,70.8,67.1,29.75,NE,55,3.0,5.0,88,0.00,OVC,OVC,0.18,WeatherDisplay:10.31,2013-06-18 21:50:00,
2013-06-18 18:00:00,70.6,66.9,29.75,NNE,18,3.0,9.0,88,0.00,OVC,OVC,0.18,WeatherDisplay:10.31,2013-06-18 22:00:00,
2013-06-18 18:05:00,70.4,66.7,29.75,NNE,31,2.0,6.0,88,0.00,OVC,OVC,0.18,WeatherDisplay:10.31,2013-06-18 22:05:00,
2013-06-18 18:10:00,70.4,66.7,29.75,NE,39,5.0,10.0,88,0.00,OVC,OVC,0.18,WeatherDisplay:10.31,2013-06-18 22:10:00,
2013-06-18 18:20:00,70.1,66.4,29.74,ENE,57,2.0,7.0,88,0.00,BKN,BKN,0.18,WeatherDisplay:10.31,2013-06-18 22:20:00,
2013-06-18 18:30:00,70.3,66.6,29.74,NE,43,2.0,6.0,88,0.00,BKN,BKN,0.18,WeatherDisplay:10.31,2013-06-18 22:30:00,
2013-06-18 18:40:00,70.3,66.2,29.75,NE,56,1.0,3.0,87,0.00,OVC,OVC,0.18,WeatherDisplay:10.31,2013-06-18 22:40:00,
2013-06-18 18:50:00,70.3,66.2,29.74,ENE,68,2.0,5.0,87,0.00,BKN,BKN,0.18,WeatherDisplay:10.31,2013-06-18 22:50:00,
2013-06-18 19:00:00,70.4,66.3,29.73,NE,45,1.0,3.0,87,0.00,BKN,BKN,0.18,WeatherDisplay:10.31,2013-06-18 23:00:00,
2013-06-18 19:05:00,70.6,66.5,29.73,NNE,23,2.0,3.0,87,0.00,OVC,OVC,0.18,WeatherDisplay:10.31,2013-06-18 23:05:00,
2013-06-18 19:10:00,70.6,66.2,29.73,NNE,31,2.0,3.0,86,0.00,OVC,OVC,0.18,WeatherDisplay:10.31,2013-06-18 23:10:00,
2013-06-18 19:20:00,70.4,66.0,29.75,NE,50,2.0,5.0,86,0.00,SCT,SCT,0.18,WeatherDisplay:10.31,2013-06-18 23:20:00,
2013-06-18 19:30:00,70.6,66.2,29.76,North,354,3.0,8.0,86,0.00,CLR,CLR,0.18,WeatherDisplay:10.31,2013-06-18 23:30:00,
2013-06-18 19:40:00,70.6,66.2,29.76,North,358,5.0,6.0,86,0.00,SCT,SCT,0.18,WeatherDisplay:10.31,2013-06-18 23:40:00,
2013-06-18 19:50:00,70.6,65.9,29.76,North,7,5.0,7.0,85,0.00,SCT,SCT,0.18,WeatherDisplay:10.31,2013-06-18 23:50:00,
2013-06-18 20:00:00,70.4,65.7,29.76,NNW,347,1.0,6.0,85,0.00,SCT,SCT,0.18,WeatherDisplay:10.31,2013-06-19 00:00:00,
2013-06-18 20:05:00,70.4,65.7,29.76,NNW,342,1.0,3.0,85,0.00,SCT,SCT,0.18,WeatherDisplay:10.31,2013-06-19 00:05:00,
2013-06-18 20:10:00,70.4,65.7,29.76,NNW,337,1.0,3.0,85,0.00,BKN,BKN,0.18,WeatherDisplay:10.31,2013-06-19 00:10:00,
2013-06-18 20:20:00,69.9,64.8,29.76,NNW,344,1.0,3.0,84,0.00,BKN,BKN,0.18,WeatherDisplay:10.31,2013-06-19 00:20:00,
2013-06-18 20:30:00,69.6,64.5,29.76,North,360,1.0,3.0,84,0.00,SCT,SCT,0.18,WeatherDisplay:10.31,2013-06-19 00:30:00,
2013-06-18 20:40:00,69.3,64.6,29.77,NNE,14,0.0,2.0,85,0.00,OVC,OVC,0.18,WeatherDisplay:10.31,2013-06-19 00:40:00,
2013-06-18 20:50:00,69.0,64.3,29.77,NNE,23,0.0,2.0,85,0.00,OVC,OVC,0.18,WeatherDisplay:10.31,2013-06-19 00:50:00,
2013-06-18 21:00:00,68.8,64.1,29.77,NNE,31,1.0,3.0,85,0.00,OVC,OVC,0.18,WeatherDisplay:10.31,2013-06-19 01:00:00,
2013-06-18 21:05:00,68.6,64.2,29.78,NE,54,0.0,2.0,86,0.00,OVC,OVC,0.18,WeatherDisplay:10.31,2013-06-19 01:05:00,
2013-06-18 21:10:00,68.6,64.2,29.78,ENE,68,0.0,1.0,86,0.00,OVC,OVC,0.18,WeatherDisplay:10.31,2013-06-19 01:10:00,
2013-06-18 21:20:00,68.3,63.9,29.78,ENE,68,0.0,3.0,86,0.00,OVC,OVC,0.18,WeatherDisplay:10.31,2013-06-19 01:20:00,
2013-06-18 21:30:00,68.1,64.1,29.79,ENE,68,0.0,2.0,87,0.00,OVC,OVC,0.18,WeatherDisplay:10.31,2013-06-19 01:30:00,
2013-06-18 21:40:00,67.9,63.9,29.80,ENE,68,0.0,1.0,87,0.00,OVC,OVC,0.18,WeatherDisplay:10.31,2013-06-19 01:40:00,
2013-06-18 21:50:00,67.6,63.6,29.79,ENE,68,0.0,1.0,87,0.00,OVC,OVC,0.18,WeatherDisplay:10.31,2013-06-19 01:50:00,
2013-06-18 22:00:00,67.4,63.4,29.80,ENE,68,0.0,3.0,87,0.00,OVC,OVC,0.18,WeatherDisplay:10.31,2013-06-19 02:00:00,
2013-06-18 22:05:00,67.4,63.7,29.81,ENE,68,0.0,1.0,88,0.00,OVC,OVC,0.18,WeatherDisplay:10.31,2013-06-19 02:05:00,
2013-06-18 22:10:00,67.3,63.6,29.81,ENE,68,0.0,1.0,88,0.00,OVC,OVC,0.18,WeatherDisplay:10.31,2013-06-19 02:10:00,
2013-06-18 22:15:00,67.3,63.6,29.81,ENE,68,0.0,2.0,88,0.00,OVC,OVC,0.18,WeatherDisplay:10.31,2013-06-19 02:15:00,
2013-06-18 22:20:00,67.2,63.5,29.81,ENE,68,0.0,0.0,88,0.00,OVC,OVC,0.18,WeatherDisplay:10.31,2013-06-19 02:20:00,
2013-06-18 22:30:00,66.9,63.2,29.81,ENE,68,0.0,0.0,88,0.00,OVC,OVC,0.18,WeatherDisplay:10.31,2013-06-19 02:30:00,
2013-06-18 22:40:00,66.8,63.1,29.81,ENE,68,0.0,3.0,88,0.00,OVC,OVC,0.18,WeatherDisplay:10.31,2013-06-19 02:40:00,
2013-06-18 22:50:00,66.6,63.3,29.81,ENE,68,0.0,3.0,89,0.00,OVC,OVC,0.18,WeatherDisplay:10.31,2013-06-19 02:50:00,
2013-06-18 22:55:00,66.4,63.1,29.81,ENE,68,1.0,2.0,89,0.00,OVC,OVC,0.18,WeatherDisplay:10.31,2013-06-19 02:55:00,
2013-06-18 23:00:00,66.4,63.1,29.81,ENE,68,0.0,2.0,89,0.00,OVC,OVC,0.18,WeatherDisplay:10.31,2013-06-19 03:00:00,
2013-06-18 23:10:00,66.3,63.0,29.81,ENE,68,1.0,3.0,89,0.00,OVC,OVC,0.18,WeatherDisplay:10.31,2013-06-19 03:10:00,
2013-06-18 23:20:00,66.3,63.3,29.81,NE,38,1.0,2.0,90,0.00,OVC,OVC,0.18,WeatherDisplay:10.31,2013-06-19 03:20:00,
2013-06-18 23:30:00,66.3,63.3,29.81,NNE,23,1.0,2.0,90,0.00,OVC,OVC,0.18,WeatherDisplay:10.31,2013-06-19 03:30:00,
2013-06-18 23:40:00,66.1,63.1,29.81,NNE,23,0.0,0.0,90,0.00,OVC,OVC,0.18,WeatherDisplay:10.31,2013-06-19 03:40:00,
2013-06-18 23:50:00,66.1,63.1,29.81,NNE,23,0.0,0.0,90,0.00,OVC,OVC,0.18,WeatherDisplay:10.31,2013-06-19 03:50:00,
2013-06-18 23:55:00,66.1,63.1,29.82,NNE,23,0.0,1.0,90,0.00,OVC,OVC,0.18,WeatherDisplay:10.31,2013-06-19 03:55:00,